sensor_id;sensor_type;location;lat;lon;timestamp;P1;durP1;ratioP1;P2;durP2;ratioP2
7406;SDS011;3745;56.964;24.128;2023-02-24T00:01:51;23.67;;;10.83;;
7406;SDS011;3745;56.964;24.128;2023-02-24T00:04:24;23.23;;;11.13;;
7406;SDS011;3745;56.964;24.128;2023-02-24T00:06:50;24.43;;;11.40;;
7406;SDS011;3745;56.964;24.128;2023-02-24T00:09:17;24.53;;;11.67;;
7406;SDS011;3745;56.964;24.128;2023-02-24T00:11:45;22.00;;;10.60;;
7406;SDS011;3745;56.964;24.128;2023-02-24T00:14:16;26.07;;;11.60;;
7406;SDS011;3745;56.964;24.128;2023-02-24T00:16:43;22.77;;;11.93;;
7406;SDS011;3745;56.964;24.128;2023-02-24T00:19:11;22.57;;;10.73;;
7406;SDS011;3745;56.964;24.128;2023-02-24T00:21:37;26.43;;;11.70;;
7406;SDS011;3745;56.964;24.128;2023-02-24T00:24:04;24.70;;;11.53;;
7406;SDS011;3745;56.964;24.128;2023-02-24T00:26:30;22.33;;;10.57;;
7406;SDS011;3745;56.964;24.128;2023-02-24T00:28:56;22.40;;;11.13;;
7406;SDS011;3745;56.964;24.128;2023-02-24T00:31:27;25.73;;;11.37;;
7406;SDS011;3745;56.964;24.128;2023-02-24T00:33:55;26.33;;;11.37;;
7406;SDS011;3745;56.964;24.128;2023-02-24T00:36:21;26.73;;;11.80;;
7406;SDS011;3745;56.964;24.128;2023-02-24T00:38:52;25.13;;;11.70;;
7406;SDS011;3745;56.964;24.128;2023-02-24T00:41:20;31.47;;;12.87;;
7406;SDS011;3745;56.964;24.128;2023-02-24T00:43:49;26.83;;;11.57;;
7406;SDS011;3745;56.964;24.128;2023-02-24T00:46:19;27.73;;;12.40;;
7406;SDS011;3745;56.964;24.128;2023-02-24T00:48:49;26.37;;;12.60;;
7406;SDS011;3745;56.964;24.128;2023-02-24T00:51:19;27.37;;;12.03;;
7406;SDS011;3745;56.964;24.128;2023-02-24T00:53:52;26.80;;;12.13;;
7406;SDS011;3745;56.964;24.128;2023-02-24T00:56:23;24.37;;;11.97;;
7406;SDS011;3745;56.964;24.128;2023-02-24T00:58:51;24.17;;;12.07;;
7406;SDS011;3745;56.964;24.128;2023-02-24T01:01:19;25.90;;;11.03;;
7406;SDS011;3745;56.964;24.128;2023-02-24T01:03:48;25.60;;;12.70;;
7406;SDS011;3745;56.964;24.128;2023-02-24T01:06:18;24.87;;;12.50;;
7406;SDS011;3745;56.964;24.128;2023-02-24T01:08:47;27.67;;;12.30;;
7406;SDS011;3745;56.964;24.128;2023-02-24T01:11:14;23.23;;;11.40;;
7406;SDS011;3745;56.964;24.128;2023-02-24T01:14:02;25.53;;;12.03;;
7406;SDS011;3745;56.964;24.128;2023-02-24T01:16:30;25.57;;;11.63;;
7406;SDS011;3745;56.964;24.128;2023-02-24T01:18:55;24.33;;;11.60;;
7406;SDS011;3745;56.964;24.128;2023-02-24T01:21:21;26.03;;;11.60;;
7406;SDS011;3745;56.964;24.128;2023-02-24T01:23:48;29.13;;;11.90;;
7406;SDS011;3745;56.964;24.128;2023-02-24T01:26:14;25.73;;;12.03;;
7406;SDS011;3745;56.964;24.128;2023-02-24T01:28:43;25.80;;;11.47;;
7406;SDS011;3745;56.964;24.128;2023-02-24T01:31:13;28.30;;;13.00;;
7406;SDS011;3745;56.964;24.128;2023-02-24T01:33:42;27.88;;;12.20;;
7406;SDS011;3745;56.964;24.128;2023-02-24T01:36:19;30.00;;;13.47;;
7406;SDS011;3745;56.964;24.128;2023-02-24T01:38:47;29.67;;;12.93;;
7406;SDS011;3745;56.964;24.128;2023-02-24T01:41:15;29.63;;;13.77;;
7406;SDS011;3745;56.964;24.128;2023-02-24T01:46:36;25.47;;;12.20;;
7406;SDS011;3745;56.964;24.128;2023-02-24T01:54:47;28.50;;;12.67;;
7406;SDS011;3745;56.964;24.128;2023-02-24T01:57:16;21.20;;;11.50;;
7406;SDS011;3745;56.964;24.128;2023-02-24T01:59:47;30.15;;;13.55;;
7406;SDS011;3745;56.964;24.128;2023-02-24T02:02:16;31.00;;;12.00;;
7406;SDS011;3745;56.964;24.128;2023-02-24T02:07:17;28.20;;;12.83;;
7406;SDS011;3745;56.964;24.128;2023-02-24T02:09:46;26.67;;;12.17;;
7406;SDS011;3745;56.964;24.128;2023-02-24T02:12:13;28.20;;;13.23;;
7406;SDS011;3745;56.964;24.128;2023-02-24T02:14:40;28.77;;;13.10;;
7406;SDS011;3745;56.964;24.128;2023-02-24T02:44:39;22.87;;;11.73;;
7406;SDS011;3745;56.964;24.128;2023-02-24T02:53:03;30.00;;;12.80;;
7406;SDS011;3745;56.964;24.128;2023-02-24T02:55:39;29.83;;;12.53;;
7406;SDS011;3745;56.964;24.128;2023-02-24T02:58:12;26.93;;;11.17;;
7406;SDS011;3745;56.964;24.128;2023-02-24T03:00:43;24.77;;;11.73;;
7406;SDS011;3745;56.964;24.128;2023-02-24T03:03:22;25.70;;;11.23;;
7406;SDS011;3745;56.964;24.128;2023-02-24T03:05:53;27.67;;;12.23;;
7406;SDS011;3745;56.964;24.128;2023-02-24T03:08:27;27.40;;;12.40;;
7406;SDS011;3745;56.964;24.128;2023-02-24T03:10:58;23.37;;;11.90;;
7406;SDS011;3745;56.964;24.128;2023-02-24T03:13:25;25.00;;;12.10;;
7406;SDS011;3745;56.964;24.128;2023-02-24T03:15:56;29.67;;;12.83;;
7406;SDS011;3745;56.964;24.128;2023-02-24T03:18:27;29.53;;;13.40;;
7406;SDS011;3745;56.964;24.128;2023-02-24T03:21:20;29.67;;;12.97;;
7406;SDS011;3745;56.964;24.128;2023-02-24T03:23:53;26.63;;;13.03;;
7406;SDS011;3745;56.964;24.128;2023-02-24T03:29:20;28.30;;;12.70;;
7406;SDS011;3745;56.964;24.128;2023-02-24T03:32:04;28.43;;;13.63;;
7406;SDS011;3745;56.964;24.128;2023-02-24T03:37:28;29.83;;;13.17;;
7406;SDS011;3745;56.964;24.128;2023-02-24T03:39:56;28.07;;;12.70;;
7406;SDS011;3745;56.964;24.128;2023-02-24T03:42:24;31.10;;;13.17;;
7406;SDS011;3745;56.964;24.128;2023-02-24T03:44:55;28.43;;;12.37;;
7406;SDS011;3745;56.964;24.128;2023-02-24T03:47:22;28.13;;;13.07;;
7406;SDS011;3745;56.964;24.128;2023-02-24T03:49:49;32.03;;;12.17;;
7406;SDS011;3745;56.964;24.128;2023-02-24T03:52:36;30.60;;;13.68;;
7406;SDS011;3745;56.964;24.128;2023-02-24T03:55:14;27.53;;;13.17;;
7406;SDS011;3745;56.964;24.128;2023-02-24T04:03:48;30.93;;;13.63;;
7406;SDS011;3745;56.964;24.128;2023-02-24T04:09:44;26.17;;;14.17;;
7406;SDS011;3745;56.964;24.128;2023-02-24T04:15:26;33.90;;;14.73;;
7406;SDS011;3745;56.964;24.128;2023-02-24T04:17:59;33.70;;;14.23;;
7406;SDS011;3745;56.964;24.128;2023-02-24T04:20:29;30.15;;;14.55;;
7406;SDS011;3745;56.964;24.128;2023-02-24T04:23:00;30.25;;;13.63;;
7406;SDS011;3745;56.964;24.128;2023-02-24T04:25:32;30.10;;;13.95;;
7406;SDS011;3745;56.964;24.128;2023-02-24T04:27:58;32.57;;;14.40;;
7406;SDS011;3745;56.964;24.128;2023-02-24T04:30:28;35.53;;;14.97;;
7406;SDS011;3745;56.964;24.128;2023-02-24T04:32:58;29.80;;;13.88;;
7406;SDS011;3745;56.964;24.128;2023-02-24T04:35:23;32.70;;;14.30;;
7406;SDS011;3745;56.964;24.128;2023-02-24T04:37:50;34.40;;;14.57;;
7406;SDS011;3745;56.964;24.128;2023-02-24T04:40:17;34.87;;;15.13;;
7406;SDS011;3745;56.964;24.128;2023-02-24T04:42:46;31.17;;;13.90;;
7406;SDS011;3745;56.964;24.128;2023-02-24T04:45:17;31.88;;;13.65;;
7406;SDS011;3745;56.964;24.128;2023-02-24T04:47:46;28.55;;;13.90;;
7406;SDS011;3745;56.964;24.128;2023-02-24T04:50:20;30.90;;;14.25;;
7406;SDS011;3745;56.964;24.128;2023-02-24T04:52:49;31.58;;;14.23;;
7406;SDS011;3745;56.964;24.128;2023-02-24T04:55:16;33.42;;;14.30;;
7406;SDS011;3745;56.964;24.128;2023-02-24T04:57:42;32.85;;;15.48;;
7406;SDS011;3745;56.964;24.128;2023-02-24T05:00:12;32.40;;;15.20;;
7406;SDS011;3745;56.964;24.128;2023-02-24T05:02:48;34.93;;;16.27;;
7406;SDS011;3745;56.964;24.128;2023-02-24T05:05:15;35.35;;;15.93;;
7406;SDS011;3745;56.964;24.128;2023-02-24T05:07:49;34.40;;;15.23;;
7406;SDS011;3745;56.964;24.128;2023-02-24T05:10:16;34.45;;;16.65;;
7406;SDS011;3745;56.964;24.128;2023-02-24T05:12:43;40.73;;;16.23;;
7406;SDS011;3745;56.964;24.128;2023-02-24T05:15:09;42.43;;;17.43;;
7406;SDS011;3745;56.964;24.128;2023-02-24T05:17:36;42.13;;;17.03;;
7406;SDS011;3745;56.964;24.128;2023-02-24T05:20:03;46.33;;;18.57;;
7406;SDS011;3745;56.964;24.128;2023-02-24T05:22:48;44.37;;;18.60;;
7406;SDS011;3745;56.964;24.128;2023-02-24T05:25:18;36.22;;;16.42;;
7406;SDS011;3745;56.964;24.128;2023-02-24T05:27:44;39.83;;;16.92;;
7406;SDS011;3745;56.964;24.128;2023-02-24T05:30:12;41.57;;;17.47;;
7406;SDS011;3745;56.964;24.128;2023-02-24T05:32:38;44.80;;;17.00;;
7406;SDS011;3745;56.964;24.128;2023-02-24T05:35:05;42.55;;;17.05;;
7406;SDS011;3745;56.964;24.128;2023-02-24T05:37:31;45.25;;;17.60;;
7406;SDS011;3745;56.964;24.128;2023-02-24T05:39:58;41.00;;;17.83;;
7406;SDS011;3745;56.964;24.128;2023-02-24T05:42:27;48.17;;;19.10;;
7406;SDS011;3745;56.964;24.128;2023-02-24T05:44:59;49.70;;;19.60;;
7406;SDS011;3745;56.964;24.128;2023-02-24T05:47:25;44.28;;;17.77;;
7406;SDS011;3745;56.964;24.128;2023-02-24T05:49:51;41.83;;;17.87;;
7406;SDS011;3745;56.964;24.128;2023-02-24T05:52:21;46.65;;;18.27;;
7406;SDS011;3745;56.964;24.128;2023-02-24T05:54:47;47.42;;;17.80;;
7406;SDS011;3745;56.964;24.128;2023-02-24T05:57:17;47.78;;;18.83;;
7406;SDS011;3745;56.964;24.128;2023-02-24T05:59:47;40.83;;;17.70;;
7406;SDS011;3745;56.964;24.128;2023-02-24T06:02:15;48.30;;;17.70;;
7406;SDS011;3745;56.964;24.128;2023-02-24T06:04:51;51.90;;;19.60;;
7406;SDS011;3745;56.964;24.128;2023-02-24T06:07:27;44.83;;;18.67;;
7406;SDS011;3745;56.964;24.128;2023-02-24T06:09:58;47.60;;;19.40;;
7406;SDS011;3745;56.964;24.128;2023-02-24T06:12:28;44.47;;;18.67;;
7406;SDS011;3745;56.964;24.128;2023-02-24T06:14:55;46.80;;;19.00;;
7406;SDS011;3745;56.964;24.128;2023-02-24T06:17:25;46.37;;;18.33;;
7406;SDS011;3745;56.964;24.128;2023-02-24T06:19:52;43.22;;;18.15;;
7406;SDS011;3745;56.964;24.128;2023-02-24T06:22:18;47.25;;;18.70;;
7406;SDS011;3745;56.964;24.128;2023-02-24T06:24:48;50.72;;;18.45;;
7406;SDS011;3745;56.964;24.128;2023-02-24T06:27:15;42.80;;;18.83;;
7406;SDS011;3745;56.964;24.128;2023-02-24T06:29:49;45.70;;;18.40;;
7406;SDS011;3745;56.964;24.128;2023-02-24T06:32:18;46.75;;;19.58;;
7406;SDS011;3745;56.964;24.128;2023-02-24T06:34:45;49.87;;;18.83;;
7406;SDS011;3745;56.964;24.128;2023-02-24T06:37:12;46.97;;;18.70;;
7406;SDS011;3745;56.964;24.128;2023-02-24T06:39:38;46.97;;;18.85;;
7406;SDS011;3745;56.964;24.128;2023-02-24T06:42:05;49.13;;;19.08;;
7406;SDS011;3745;56.964;24.128;2023-02-24T06:44:34;47.95;;;19.75;;
7406;SDS011;3745;56.964;24.128;2023-02-24T06:47:01;48.58;;;20.55;;
7406;SDS011;3745;56.964;24.128;2023-02-24T06:49:27;51.67;;;18.70;;
7406;SDS011;3745;56.964;24.128;2023-02-24T06:51:54;52.30;;;19.95;;
7406;SDS011;3745;56.964;24.128;2023-02-24T06:54:20;51.50;;;20.20;;
7406;SDS011;3745;56.964;24.128;2023-02-24T06:56:50;49.97;;;20.50;;
7406;SDS011;3745;56.964;24.128;2023-02-24T06:59:16;52.43;;;20.87;;
7406;SDS011;3745;56.964;24.128;2023-02-24T07:01:53;51.83;;;20.07;;
7406;SDS011;3745;56.964;24.128;2023-02-24T07:04:19;55.10;;;19.52;;
7406;SDS011;3745;56.964;24.128;2023-02-24T07:06:46;52.97;;;20.08;;
7406;SDS011;3745;56.964;24.128;2023-02-24T07:09:16;55.30;;;19.77;;
7406;SDS011;3745;56.964;24.128;2023-02-24T07:11:44;48.03;;;19.75;;
7406;SDS011;3745;56.964;24.128;2023-02-24T07:14:12;52.67;;;20.23;;
7406;SDS011;3745;56.964;24.128;2023-02-24T07:16:39;48.13;;;19.80;;
7406;SDS011;3745;56.964;24.128;2023-02-24T07:19:09;47.88;;;19.75;;
7406;SDS011;3745;56.964;24.128;2023-02-24T07:21:38;48.00;;;18.98;;
7406;SDS011;3745;56.964;24.128;2023-02-24T07:24:10;45.08;;;18.80;;
7406;SDS011;3745;56.964;24.128;2023-02-24T07:26:38;56.28;;;21.17;;
7406;SDS011;3745;56.964;24.128;2023-02-24T07:29:10;50.15;;;19.58;;
7406;SDS011;3745;56.964;24.128;2023-02-24T07:31:37;50.58;;;19.42;;
7406;SDS011;3745;56.964;24.128;2023-02-24T07:34:03;54.22;;;19.80;;
7406;SDS011;3745;56.964;24.128;2023-02-24T07:36:30;51.65;;;20.17;;
7406;SDS011;3745;56.964;24.128;2023-02-24T07:39:03;50.00;;;19.30;;
7406;SDS011;3745;56.964;24.128;2023-02-24T07:41:32;46.13;;;18.63;;
7406;SDS011;3745;56.964;24.128;2023-02-24T07:43:58;47.40;;;19.00;;
7406;SDS011;3745;56.964;24.128;2023-02-24T07:46:28;47.22;;;18.90;;
7406;SDS011;3745;56.964;24.128;2023-02-24T07:48:54;47.45;;;19.80;;
7406;SDS011;3745;56.964;24.128;2023-02-24T07:51:24;47.10;;;19.98;;
7406;SDS011;3745;56.964;24.128;2023-02-24T07:53:51;50.45;;;20.65;;
7406;SDS011;3745;56.964;24.128;2023-02-24T07:56:23;44.00;;;18.30;;
7406;SDS011;3745;56.964;24.128;2023-02-24T07:58:51;47.80;;;18.65;;
7406;SDS011;3745;56.964;24.128;2023-02-24T08:01:43;43.88;;;18.17;;
7406;SDS011;3745;56.964;24.128;2023-02-24T08:04:14;43.50;;;18.17;;
7406;SDS011;3745;56.964;24.128;2023-02-24T08:06:42;45.67;;;19.73;;
7406;SDS011;3745;56.964;24.128;2023-02-24T08:09:09;45.67;;;19.13;;
7406;SDS011;3745;56.964;24.128;2023-02-24T08:11:44;43.15;;;17.67;;
7406;SDS011;3745;56.964;24.128;2023-02-24T08:14:23;40.95;;;17.75;;
7406;SDS011;3745;56.964;24.128;2023-02-24T08:16:54;43.97;;;19.13;;
7406;SDS011;3745;56.964;24.128;2023-02-24T08:19:24;47.20;;;18.63;;
7406;SDS011;3745;56.964;24.128;2023-02-24T08:21:57;44.35;;;19.20;;
7406;SDS011;3745;56.964;24.128;2023-02-24T08:24:43;47.58;;;18.27;;
7406;SDS011;3745;56.964;24.128;2023-02-24T08:27:16;46.33;;;19.55;;
7406;SDS011;3745;56.964;24.128;2023-02-24T08:29:47;45.08;;;18.33;;
7406;SDS011;3745;56.964;24.128;2023-02-24T08:35:08;45.88;;;18.63;;
7406;SDS011;3745;56.964;24.128;2023-02-24T08:37:42;43.95;;;19.20;;
7406;SDS011;3745;56.964;24.128;2023-02-24T08:43:05;46.20;;;19.67;;
7406;SDS011;3745;56.964;24.128;2023-02-24T08:48:57;46.35;;;20.08;;
7406;SDS011;3745;56.964;24.128;2023-02-24T08:51:31;42.78;;;18.17;;
7406;SDS011;3745;56.964;24.128;2023-02-24T08:54:05;48.67;;;19.65;;
7406;SDS011;3745;56.964;24.128;2023-02-24T08:56:35;45.97;;;18.33;;
7406;SDS011;3745;56.964;24.128;2023-02-24T08:59:07;45.08;;;19.30;;
7406;SDS011;3745;56.964;24.128;2023-02-24T09:01:53;43.00;;;17.83;;
7406;SDS011;3745;56.964;24.128;2023-02-24T09:04:42;44.22;;;18.20;;
7406;SDS011;3745;56.964;24.128;2023-02-24T09:07:24;42.72;;;17.77;;
7406;SDS011;3745;56.964;24.128;2023-02-24T09:09:52;44.63;;;17.73;;
7406;SDS011;3745;56.964;24.128;2023-02-24T09:12:21;43.45;;;19.15;;
7406;SDS011;3745;56.964;24.128;2023-02-24T09:14:50;49.58;;;18.15;;
7406;SDS011;3745;56.964;24.128;2023-02-24T09:17:24;40.60;;;16.95;;
7406;SDS011;3745;56.964;24.128;2023-02-24T09:20:19;39.83;;;17.15;;
7406;SDS011;3745;56.964;24.128;2023-02-24T09:23:05;40.17;;;17.17;;
7406;SDS011;3745;56.964;24.128;2023-02-24T09:25:35;41.22;;;18.67;;
7406;SDS011;3745;56.964;24.128;2023-02-24T09:28:12;39.13;;;17.13;;
7406;SDS011;3745;56.964;24.128;2023-02-24T09:30:43;37.67;;;16.52;;
7406;SDS011;3745;56.964;24.128;2023-02-24T09:36:00;40.00;;;17.30;;
7406;SDS011;3745;56.964;24.128;2023-02-24T09:38:38;35.85;;;15.40;;
7406;SDS011;3745;56.964;24.128;2023-02-24T09:41:25;36.15;;;15.40;;
7406;SDS011;3745;56.964;24.128;2023-02-24T09:44:53;41.13;;;17.25;;
7406;SDS011;3745;56.964;24.128;2023-02-24T09:52:38;38.63;;;16.45;;
7406;SDS011;3745;56.964;24.128;2023-02-24T09:55:30;34.88;;;15.75;;
7406;SDS011;3745;56.964;24.128;2023-02-24T10:01:15;33.65;;;15.38;;
7406;SDS011;3745;56.964;24.128;2023-02-24T10:07:15;31.35;;;14.63;;
7406;SDS011;3745;56.964;24.128;2023-02-24T10:12:45;37.72;;;15.27;;
7406;SDS011;3745;56.964;24.128;2023-02-24T10:15:26;32.80;;;15.82;;
7406;SDS011;3745;56.964;24.128;2023-02-24T10:20:51;32.22;;;14.77;;
7406;SDS011;3745;56.964;24.128;2023-02-24T10:26:01;34.22;;;15.45;;
7406;SDS011;3745;56.964;24.128;2023-02-24T10:28:49;33.83;;;15.45;;
7406;SDS011;3745;56.964;24.128;2023-02-24T10:31:31;38.13;;;16.02;;
7406;SDS011;3745;56.964;24.128;2023-02-24T10:34:07;32.90;;;14.70;;
7406;SDS011;3745;56.964;24.128;2023-02-24T10:36:35;36.53;;;16.10;;
7406;SDS011;3745;56.964;24.128;2023-02-24T10:39:21;45.03;;;20.45;;
7406;SDS011;3745;56.964;24.128;2023-02-24T10:41:57;39.70;;;16.83;;
7406;SDS011;3745;56.964;24.128;2023-02-24T10:44:39;40.75;;;17.50;;
7406;SDS011;3745;56.964;24.128;2023-02-24T10:47:16;45.28;;;17.45;;
7406;SDS011;3745;56.964;24.128;2023-02-24T10:49:47;43.25;;;16.73;;
7406;SDS011;3745;56.964;24.128;2023-02-24T10:55:28;33.90;;;15.38;;
7406;SDS011;3745;56.964;24.128;2023-02-24T10:58:14;39.88;;;16.85;;
7406;SDS011;3745;56.964;24.128;2023-02-24T11:00:53;43.55;;;17.15;;
7406;SDS011;3745;56.964;24.128;2023-02-24T11:03:38;42.90;;;16.67;;
7406;SDS011;3745;56.964;24.128;2023-02-24T11:06:25;41.97;;;16.17;;
7406;SDS011;3745;56.964;24.128;2023-02-24T11:12:41;54.58;;;18.33;;
7406;SDS011;3745;56.964;24.128;2023-02-24T11:15:06;46.88;;;17.23;;
7406;SDS011;3745;56.964;24.128;2023-02-24T11:18:01;47.22;;;18.55;;
7406;SDS011;3745;56.964;24.128;2023-02-24T11:23:29;45.45;;;17.80;;
7406;SDS011;3745;56.964;24.128;2023-02-24T11:26:18;42.65;;;18.73;;
7406;SDS011;3745;56.964;24.128;2023-02-24T11:40:13;36.78;;;15.93;;
7406;SDS011;3745;56.964;24.128;2023-02-24T11:42:48;33.33;;;14.35;;
7406;SDS011;3745;56.964;24.128;2023-02-24T11:47:54;30.15;;;14.25;;
7406;SDS011;3745;56.964;24.128;2023-02-24T12:01:59;33.28;;;15.85;;
7406;SDS011;3745;56.964;24.128;2023-02-24T12:07:35;35.08;;;16.60;;
7406;SDS011;3745;56.964;24.128;2023-02-24T12:15:18;40.03;;;17.02;;
7406;SDS011;3745;56.964;24.128;2023-02-24T12:20:39;45.85;;;18.55;;
7406;SDS011;3745;56.964;24.128;2023-02-24T12:37:28;43.95;;;18.80;;
7406;SDS011;3745;56.964;24.128;2023-02-24T12:40:08;48.15;;;18.73;;
7406;SDS011;3745;56.964;24.128;2023-02-24T12:43:04;43.42;;;18.10;;
7406;SDS011;3745;56.964;24.128;2023-02-24T12:51:09;36.08;;;16.00;;
7406;SDS011;3745;56.964;24.128;2023-02-24T12:53:41;40.42;;;16.73;;
7406;SDS011;3745;56.964;24.128;2023-02-24T12:59:00;32.92;;;15.00;;
7406;SDS011;3745;56.964;24.128;2023-02-24T13:07:03;35.42;;;16.00;;
7406;SDS011;3745;56.964;24.128;2023-02-24T13:09:46;33.28;;;14.95;;
7406;SDS011;3745;56.964;24.128;2023-02-24T13:14:51;31.17;;;14.27;;
7406;SDS011;3745;56.964;24.128;2023-02-24T13:17:19;28.90;;;13.52;;
7406;SDS011;3745;56.964;24.128;2023-02-24T13:19:47;28.20;;;14.13;;
7406;SDS011;3745;56.964;24.128;2023-02-24T13:22:20;28.33;;;13.57;;
7406;SDS011;3745;56.964;24.128;2023-02-24T13:25:08;30.23;;;14.50;;
7406;SDS011;3745;56.964;24.128;2023-02-24T13:27:42;26.35;;;13.00;;
7406;SDS011;3745;56.964;24.128;2023-02-24T13:32:43;31.58;;;15.10;;
7406;SDS011;3745;56.964;24.128;2023-02-24T13:37:45;47.42;;;18.40;;
7406;SDS011;3745;56.964;24.128;2023-02-24T13:40:18;41.60;;;18.63;;
7406;SDS011;3745;56.964;24.128;2023-02-24T13:43:00;44.85;;;19.08;;
7406;SDS011;3745;56.964;24.128;2023-02-24T13:45:34;47.22;;;19.48;;
7406;SDS011;3745;56.964;24.128;2023-02-24T14:02:45;38.97;;;17.83;;
7406;SDS011;3745;56.964;24.128;2023-02-24T14:05:18;44.30;;;18.02;;
7406;SDS011;3745;56.964;24.128;2023-02-24T14:07:50;45.90;;;22.88;;
7406;SDS011;3745;56.964;24.128;2023-02-24T14:10:18;42.85;;;19.67;;
7406;SDS011;3745;56.964;24.128;2023-02-24T14:12:49;37.28;;;15.52;;
7406;SDS011;3745;56.964;24.128;2023-02-24T14:15:22;38.72;;;19.02;;
7406;SDS011;3745;56.964;24.128;2023-02-24T14:17:55;31.25;;;15.35;;
7406;SDS011;3745;56.964;24.128;2023-02-24T14:20:26;29.25;;;15.15;;
7406;SDS011;3745;56.964;24.128;2023-02-24T14:22:56;33.60;;;17.25;;
7406;SDS011;3745;56.964;24.128;2023-02-24T14:25:24;32.40;;;15.68;;
7406;SDS011;3745;56.964;24.128;2023-02-24T14:27:53;31.13;;;15.20;;
7406;SDS011;3745;56.964;24.128;2023-02-24T14:30:34;35.07;;;16.67;;
7406;SDS011;3745;56.964;24.128;2023-02-24T14:33:02;33.90;;;16.40;;
7406;SDS011;3745;56.964;24.128;2023-02-24T14:38:25;39.30;;;20.25;;
7406;SDS011;3745;56.964;24.128;2023-02-24T14:41:00;40.15;;;17.65;;
7406;SDS011;3745;56.964;24.128;2023-02-24T14:43:27;37.03;;;17.13;;
7406;SDS011;3745;56.964;24.128;2023-02-24T14:45:53;43.58;;;20.75;;
7406;SDS011;3745;56.964;24.128;2023-02-24T14:48:26;37.70;;;17.67;;
7406;SDS011;3745;56.964;24.128;2023-02-24T14:50:54;36.33;;;17.60;;
7406;SDS011;3745;56.964;24.128;2023-02-24T14:53:24;36.08;;;16.95;;
7406;SDS011;3745;56.964;24.128;2023-02-24T14:55:54;40.72;;;17.08;;
7406;SDS011;3745;56.964;24.128;2023-02-24T14:58:30;47.05;;;18.65;;
7406;SDS011;3745;56.964;24.128;2023-02-24T15:01:21;41.88;;;19.02;;
7406;SDS011;3745;56.964;24.128;2023-02-24T15:03:56;48.67;;;19.58;;
7406;SDS011;3745;56.964;24.128;2023-02-24T15:06:25;52.70;;;20.50;;
7406;SDS011;3745;56.964;24.128;2023-02-24T15:08:55;60.45;;;24.00;;
7406;SDS011;3745;56.964;24.128;2023-02-24T15:11:24;52.33;;;20.65;;
7406;SDS011;3745;56.964;24.128;2023-02-24T15:14:00;55.58;;;20.38;;
7406;SDS011;3745;56.964;24.128;2023-02-24T15:19:00;60.78;;;21.50;;
7406;SDS011;3745;56.964;24.128;2023-02-24T15:21:33;78.82;;;28.85;;
7406;SDS011;3745;56.964;24.128;2023-02-24T15:24:18;70.22;;;22.40;;
7406;SDS011;3745;56.964;24.128;2023-02-24T15:26:56;66.82;;;22.70;;
7406;SDS011;3745;56.964;24.128;2023-02-24T15:29:29;79.55;;;22.65;;
7406;SDS011;3745;56.964;24.128;2023-02-24T15:31:56;75.43;;;23.90;;
7406;SDS011;3745;56.964;24.128;2023-02-24T15:36:58;70.75;;;23.75;;
7406;SDS011;3745;56.964;24.128;2023-02-24T15:39:28;71.07;;;23.20;;
7406;SDS011;3745;56.964;24.128;2023-02-24T15:54:38;71.30;;;24.73;;
7406;SDS011;3745;56.964;24.128;2023-02-24T15:57:08;66.47;;;22.88;;
7406;SDS011;3745;56.964;24.128;2023-02-24T15:59:37;64.55;;;22.80;;
7406;SDS011;3745;56.964;24.128;2023-02-24T16:02:09;67.05;;;22.00;;
7406;SDS011;3745;56.964;24.128;2023-02-24T16:04:42;76.30;;;23.83;;
7406;SDS011;3745;56.964;24.128;2023-02-24T16:07:18;75.47;;;25.37;;
7406;SDS011;3745;56.964;24.128;2023-02-24T16:09:46;62.30;;;20.33;;
7406;SDS011;3745;56.964;24.128;2023-02-24T16:12:19;68.57;;;22.25;;
7406;SDS011;3745;56.964;24.128;2023-02-24T16:14:48;62.70;;;22.67;;
7406;SDS011;3745;56.964;24.128;2023-02-24T16:17:36;80.53;;;23.90;;
7406;SDS011;3745;56.964;24.128;2023-02-24T16:20:04;69.43;;;23.15;;
7406;SDS011;3745;56.964;24.128;2023-02-24T16:22:40;77.47;;;24.25;;
7406;SDS011;3745;56.964;24.128;2023-02-24T16:25:06;83.43;;;25.33;;
7406;SDS011;3745;56.964;24.128;2023-02-24T16:27:32;70.30;;;22.90;;
7406;SDS011;3745;56.964;24.128;2023-02-24T16:29:58;67.40;;;21.88;;
7406;SDS011;3745;56.964;24.128;2023-02-24T16:32:24;72.32;;;23.30;;
7406;SDS011;3745;56.964;24.128;2023-02-24T16:34:53;74.22;;;22.88;;
7406;SDS011;3745;56.964;24.128;2023-02-24T16:37:21;71.70;;;21.92;;
7406;SDS011;3745;56.964;24.128;2023-02-24T16:39:49;70.43;;;22.77;;
7406;SDS011;3745;56.964;24.128;2023-02-24T16:42:15;74.10;;;23.70;;
7406;SDS011;3745;56.964;24.128;2023-02-24T16:44:41;65.88;;;23.77;;
7406;SDS011;3745;56.964;24.128;2023-02-24T16:47:11;84.95;;;27.58;;
7406;SDS011;3745;56.964;24.128;2023-02-24T16:49:39;77.35;;;24.83;;
7406;SDS011;3745;56.964;24.128;2023-02-24T16:52:05;72.07;;;23.35;;
7406;SDS011;3745;56.964;24.128;2023-02-24T16:54:31;85.30;;;28.25;;
7406;SDS011;3745;56.964;24.128;2023-02-24T16:56:56;76.67;;;26.37;;
7406;SDS011;3745;56.964;24.128;2023-02-24T16:59:22;73.45;;;23.98;;
7406;SDS011;3745;56.964;24.128;2023-02-24T17:01:50;75.15;;;23.52;;
7406;SDS011;3745;56.964;24.128;2023-02-24T17:04:17;65.13;;;22.42;;
7406;SDS011;3745;56.964;24.128;2023-02-24T17:06:44;67.75;;;23.65;;
7406;SDS011;3745;56.964;24.128;2023-02-24T17:09:10;70.82;;;23.95;;
7406;SDS011;3745;56.964;24.128;2023-02-24T17:11:39;85.10;;;26.98;;
7406;SDS011;3745;56.964;24.128;2023-02-24T17:14:08;80.90;;;27.50;;
7406;SDS011;3745;56.964;24.128;2023-02-24T17:16:39;67.40;;;25.70;;
7406;SDS011;3745;56.964;24.128;2023-02-24T17:19:06;74.35;;;27.80;;
7406;SDS011;3745;56.964;24.128;2023-02-24T17:21:32;81.10;;;28.90;;
7406;SDS011;3745;56.964;24.128;2023-02-24T17:23:57;83.68;;;28.10;;
7406;SDS011;3745;56.964;24.128;2023-02-24T17:26:23;84.97;;;27.77;;
7406;SDS011;3745;56.964;24.128;2023-02-24T17:28:48;86.93;;;27.85;;
7406;SDS011;3745;56.964;24.128;2023-02-24T17:31:14;78.40;;;26.67;;
7406;SDS011;3745;56.964;24.128;2023-02-24T17:33:40;86.05;;;27.42;;
7406;SDS011;3745;56.964;24.128;2023-02-24T17:36:05;84.18;;;27.48;;
7406;SDS011;3745;56.964;24.128;2023-02-24T17:38:31;80.95;;;28.15;;
7406;SDS011;3745;56.964;24.128;2023-02-24T17:40:57;88.95;;;27.27;;
7406;SDS011;3745;56.964;24.128;2023-02-24T17:43:25;72.70;;;24.08;;
7406;SDS011;3745;56.964;24.128;2023-02-24T17:45:52;85.70;;;27.70;;
7406;SDS011;3745;56.964;24.128;2023-02-24T17:48:18;112.93;;;26.83;;
7406;SDS011;3745;56.964;24.128;2023-02-24T17:50:45;87.60;;;26.27;;
7406;SDS011;3745;56.964;24.128;2023-02-24T17:53:11;86.95;;;23.75;;
7406;SDS011;3745;56.964;24.128;2023-02-24T17:55:37;80.13;;;24.15;;
7406;SDS011;3745;56.964;24.128;2023-02-24T17:58:02;126.05;;;27.45;;
7406;SDS011;3745;56.964;24.128;2023-02-24T18:00:28;107.32;;;26.98;;
7406;SDS011;3745;56.964;24.128;2023-02-24T18:02:54;118.22;;;26.48;;
7406;SDS011;3745;56.964;24.128;2023-02-24T18:05:20;86.80;;;23.88;;
7406;SDS011;3745;56.964;24.128;2023-02-24T18:07:46;65.22;;;22.42;;
7406;SDS011;3745;56.964;24.128;2023-02-24T18:10:12;74.68;;;21.60;;
7406;SDS011;3745;56.964;24.128;2023-02-24T18:12:38;52.80;;;18.55;;
7406;SDS011;3745;56.964;24.128;2023-02-24T18:15:04;48.22;;;19.35;;
7406;SDS011;3745;56.964;24.128;2023-02-24T18:17:31;50.90;;;19.83;;
7406;SDS011;3745;56.964;24.128;2023-02-24T18:19:58;51.05;;;18.50;;
7406;SDS011;3745;56.964;24.128;2023-02-24T18:22:24;52.50;;;20.00;;
7406;SDS011;3745;56.964;24.128;2023-02-24T18:24:49;50.05;;;18.63;;
7406;SDS011;3745;56.964;24.128;2023-02-24T18:27:15;44.38;;;16.85;;
7406;SDS011;3745;56.964;24.128;2023-02-24T18:29:41;42.28;;;16.83;;